Time;durP1;ratioP1;P1;durP2;ratioP2;P2;SDS_P1;SDS_P2;PMS_P1;PMS_P2;Temp;Humidity;BMP_temperature;BMP_pressure;BME280_temperature;BME280_humidity;BME280_pressure;Samples;Min_cycle;Max_cycle;Signal;HPM_P1;HPM_P2
2022/03/12 00:01:16;;;;;;;8.82;7.93;;;6.90;50.20;;;;;;5152792;27;20045;-73
2022/03/12 00:03:42;;;;;;;9.20;8.30;;;6.90;50.40;;;;;;5151648;27;20047;-72
2022/03/12 00:06:09;;;;;;;9.50;7.97;;;6.90;50.50;;;;;;5135333;27;20050;-72
2022/03/12 00:08:46;;;;;;;8.88;7.97;;;6.80;50.40;;;;;;5152490;27;20043;-72
2022/03/12 00:11:15;;;;;;;10.35;8.23;;;6.80;50.90;;;;;;5155147;27;20039;-73
2022/03/12 00:13:42;;;;;;;8.48;7.57;;;6.80;51.20;;;;;;5136392;27;20047;-73
2022/03/12 00:16:22;;;;;;;9.30;8.30;;;6.70;51.20;;;;;;5153915;27;20042;-72
2022/03/12 00:18:55;;;;;;;9.13;7.82;;;6.70;50.90;;;;;;5155470;27;20054;-73
2022/03/12 00:21:25;;;;;;;9.30;8.25;;;6.70;51.10;;;;;;5154750;27;20041;-72
2022/03/12 00:23:56;;;;;;;10.27;7.97;;;6.70;50.50;;;;;;5154535;27;20046;-73
2022/03/12 00:26:23;;;;;;;9.25;8.15;;;6.70;50.30;;;;;;5153050;27;20051;-72
2022/03/12 00:28:52;;;;;;;9.07;8.18;;;6.80;50.20;;;;;;5154979;27;20038;-72
2022/03/12 00:31:17;;;;;;;9.35;8.35;;;6.80;50.30;;;;;;5148906;27;20046;-72
2022/03/12 00:33:43;;;;;;;9.38;8.10;;;6.90;50.20;;;;;;5154862;27;20057;-73
2022/03/12 00:36:09;;;;;;;9.15;8.25;;;6.90;50.30;;;;;;5146262;27;20064;-72
2022/03/12 00:38:35;;;;;;;9.90;7.75;;;6.90;50.10;;;;;;5134348;27;20051;-73
2022/03/12 00:41:04;;;;;;;9.65;8.30;;;6.90;50.70;;;;;;5151479;27;20035;-72
2022/03/12 00:43:30;;;;;;;9.05;8.02;;;6.80;50.70;;;;;;5154905;27;20055;-72
2022/03/12 00:45:56;;;;;;;10.65;8.02;;;6.80;51.30;;;;;;5125031;27;20047;-72
2022/03/12 00:48:21;;;;;;;9.27;8.38;;;6.70;52.00;;;;;;5155190;27;20047;-72
2022/03/12 00:50:47;;;;;;;10.65;8.95;;;6.70;52.50;;;;;;5150099;27;20042;-72
2022/03/12 00:53:13;;;;;;;9.35;8.38;;;6.60;52.50;;;;;;5136895;27;20075;-72
2022/03/12 00:55:39;;;;;;;9.10;8.15;;;6.60;52.80;;;;;;5147061;27;20042;-73
2022/03/12 00:58:04;;;;;;;11.10;8.55;;;6.60;52.40;;;;;;5154062;27;20118;-72
2022/03/12 01:00:31;;;;;;;8.50;7.70;;;6.60;52.00;;;;;;5155217;27;20039;-72
2022/03/12 01:02:57;;;;;;;9.95;8.30;;;6.60;51.60;;;;;;5154388;27;20046;-72
2022/03/12 01:05:39;;;;;;;10.40;7.97;;;6.70;51.40;;;;;;5135219;27;20046;-72
2022/03/12 01:08:06;;;;;;;10.18;7.93;;;6.70;50.60;;;;;;5147796;27;20099;-72
2022/03/12 01:10:32;;;;;;;10.85;8.32;;;6.80;50.80;;;;;;5134047;27;20484;-72
2022/03/12 01:12:57;;;;;;;10.68;8.55;;;6.80;51.10;;;;;;5115189;27;20051;-72
2022/03/12 01:15:23;;;;;;;10.57;8.40;;;6.80;50.70;;;;;;5139415;27;20043;-72
2022/03/12 01:17:50;;;;;;;9.75;7.95;;;6.80;50.70;;;;;;5153887;27;20115;-72
2022/03/12 01:20:20;;;;;;;9.35;8.38;;;6.80;50.90;;;;;;5151332;27;20151;-72
2022/03/12 01:22:46;;;;;;;10.93;8.30;;;6.90;51.00;;;;;;5154051;27;20495;-73
2022/03/12 01:25:11;;;;;;;9.23;7.93;;;6.90;51.20;;;;;;5139834;27;20070;-73
2022/03/12 01:27:37;;;;;;;8.48;7.57;;;6.80;51.40;;;;;;5154394;27;20487;-73
2022/03/12 01:30:07;;;;;;;10.55;7.95;;;6.80;51.20;;;;;;5137920;27;20110;-73
2022/03/12 01:32:33;;;;;;;8.57;7.65;;;6.80;51.30;;;;;;5150511;27;20050;-72
2022/03/12 01:34:59;;;;;;;9.30;8.30;;;6.80;51.20;;;;;;5153129;27;20789;-72
2022/03/12 01:37:25;;;;;;;9.82;8.02;;;6.80;51.10;;;;;;5152628;27;20074;-72
2022/03/12 01:39:51;;;;;;;8.60;7.80;;;6.80;51.10;;;;;;5139214;27;20407;-72
2022/03/12 01:42:21;;;;;;;9.63;8.18;;;6.80;51.30;;;;;;5123859;27;20085;-72
2022/03/12 01:44:47;;;;;;;10.25;8.55;;;6.80;51.30;;;;;;5153062;27;20509;-73
2022/03/12 01:47:16;;;;;;;11.30;8.30;;;6.70;51.40;;;;;;5134620;27;20046;-73
2022/03/12 01:49:42;;;;;;;9.48;7.85;;;6.70;51.70;;;;;;5153651;27;20095;-74
2022/03/12 01:52:08;;;;;;;10.63;7.97;;;6.70;51.50;;;;;;5146120;27;20035;-73
2022/03/12 01:54:34;;;;;;;9.13;8.23;;;6.70;51.40;;;;;;5154262;27;20047;-72
2022/03/12 01:57:02;;;;;;;8.88;7.90;;;6.70;50.90;;;;;;5144069;27;20104;-73
2022/03/12 01:59:27;;;;;;;8.95;8.15;;;6.70;51.10;;;;;;5133432;28;20047;-73
2022/03/12 02:01:53;;;;;;;9.18;8.15;;;6.80;52.10;;;;;;5139933;27;20034;-73
2022/03/12 02:04:20;;;;;;;9.30;8.40;;;6.80;51.40;;;;;;5153794;27;20117;-73
2022/03/12 02:06:46;;;;;;;11.05;8.65;;;6.70;51.20;;;;;;5146507;27;20050;-73
2022/03/12 02:09:15;;;;;;;8.82;7.93;;;6.80;51.40;;;;;;5135098;27;20035;-72
2022/03/12 02:11:43;;;;;;;9.32;8.43;;;6.70;51.50;;;;;;5142504;27;20043;-72
2022/03/12 02:14:15;;;;;;;9.15;8.20;;;6.70;51.50;;;;;;5153973;27;20047;-72
2022/03/12 02:16:47;;;;;;;11.32;8.88;;;6.70;51.70;;;;;;5150924;27;20038;-73
2022/03/12 02:19:13;;;;;;;10.07;8.65;;;6.70;51.60;;;;;;5154546;27;20616;-73
2022/03/12 02:21:49;;;;;;;9.40;8.38;;;6.60;51.80;;;;;;5138562;27;20152;-72
2022/03/12 02:24:17;;;;;;;8.93;8.02;;;6.60;51.80;;;;;;5158325;27;20042;-72
2022/03/12 02:26:45;;;;;;;10.20;8.10;;;6.60;52.20;;;;;;5156309;27;20047;-73
2022/03/12 02:29:12;;;;;;;10.65;8.77;;;6.60;51.80;;;;;;5156044;27;20041;-72
2022/03/12 02:31:45;;;;;;;12.10;8.45;;;6.50;51.90;;;;;;5157606;27;20491;-72
2022/03/12 02:34:12;;;;;;;9.43;8.43;;;6.60;51.70;;;;;;5157192;27;20048;-72
2022/03/12 02:36:40;;;;;;;9.52;8.52;;;6.60;51.50;;;;;;5144160;27;20454;-72
2022/03/12 02:39:07;;;;;;;9.55;8.55;;;6.60;51.90;;;;;;5141885;27;20051;-73
2022/03/12 02:41:33;;;;;;;9.50;8.52;;;6.50;52.40;;;;;;5157344;27;20039;-72
2022/03/12 02:44:00;;;;;;;8.75;7.85;;;6.50;52.50;;;;;;5156420;27;20050;-72
2022/03/12 02:46:32;;;;;;;9.43;8.43;;;6.50;52.20;;;;;;5141673;27;20054;-72
2022/03/12 02:48:57;;;;;;;11.60;9.10;;;6.50;52.50;;;;;;5139439;27;20042;-73
2022/03/12 02:51:25;;;;;;;9.63;8.60;;;6.40;52.40;;;;;;5157125;27;20045;-72
2022/03/12 02:53:54;;;;;;;9.02;8.15;;;6.40;52.60;;;;;;5156317;27;20609;-73
2022/03/12 02:56:20;;;;;;;9.13;8.23;;;6.40;52.50;;;;;;5145106;27;20043;-72
2022/03/12 02:58:46;;;;;;;9.75;8.68;;;6.40;53.00;;;;;;5136918;27;20047;-73
2022/03/12 03:01:15;;;;;;;9.75;8.70;;;6.40;52.70;;;;;;5156842;27;20175;-73
2022/03/12 03:03:42;;;;;;;9.32;8.43;;;6.40;52.90;;;;;;5138786;27;20050;-72
2022/03/12 03:06:09;;;;;;;10.40;8.43;;;6.30;52.80;;;;;;5146805;27;20035;-72
2022/03/12 03:08:39;;;;;;;9.13;8.13;;;6.30;52.50;;;;;;5136223;27;20506;-72
2022/03/12 03:11:16;;;;;;;9.07;8.10;;;6.30;52.50;;;;;;5136219;27;20172;-72
2022/03/12 03:13:44;;;;;;;9.05;8.18;;;6.40;52.60;;;;;;5153580;27;20487;-73
2022/03/12 03:16:18;;;;;;;9.30;8.30;;;6.30;53.10;;;;;;5150668;27;20053;-73
2022/03/12 03:18:50;;;;;;;9.63;8.70;;;6.30;53.10;;;;;;5137635;27;20070;-73
2022/03/12 03:21:17;;;;;;;9.95;8.90;;;6.40;52.70;;;;;;5134979;27;20047;-72
2022/03/12 03:23:44;;;;;;;10.02;8.40;;;6.40;52.80;;;;;;5149848;27;20390;-72
2022/03/12 03:26:11;;;;;;;10.20;9.00;;;6.30;52.40;;;;;;5154286;27;20659;-73
2022/03/12 03:28:36;;;;;;;9.48;8.30;;;6.30;52.50;;;;;;5136223;27;20039;-73
2022/03/12 03:31:05;;;;;;;10.02;8.48;;;6.30;52.40;;;;;;5155221;27;20391;-72
2022/03/12 03:33:31;;;;;;;10.07;8.98;;;6.30;52.60;;;;;;5155706;27;20042;-72
2022/03/12 03:35:57;;;;;;;9.65;8.63;;;6.30;52.80;;;;;;5137856;27;20099;-73
2022/03/12 03:38:24;;;;;;;10.32;9.27;;;6.20;53.10;;;;;;5138813;27;20039;-73
2022/03/12 03:40:50;;;;;;;10.45;8.68;;;6.30;52.60;;;;;;5135847;27;20126;-72
2022/03/12 03:43:19;;;;;;;9.55;8.57;;;6.20;52.80;;;;;;5149654;27;20050;-73
2022/03/12 03:45:48;;;;;;;11.55;8.80;;;6.20;52.70;;;;;;5156488;27;20047;-73
2022/03/12 03:48:16;;;;;;;9.63;8.68;;;6.20;53.00;;;;;;5140446;27;20043;-73
2022/03/12 03:50:44;;;;;;;9.77;8.77;;;6.10;52.90;;;;;;5135655;27;20043;-72
2022/03/12 03:53:12;;;;;;;10.40;9.30;;;6.10;53.00;;;;;;5148798;27;20042;-73
2022/03/12 03:55:38;;;;;;;9.82;8.82;;;6.10;52.90;;;;;;5155829;27;20079;-72
2022/03/12 03:58:04;;;;;;;8.98;8.07;;;6.10;53.20;;;;;;5155076;27;20399;-73
2022/03/12 04:00:33;;;;;;;10.05;8.55;;;6.10;53.00;;;;;;5156144;27;20039;-72
2022/03/12 04:03:02;;;;;;;9.95;8.82;;;6.10;53.00;;;;;;5145828;27;20492;-72
2022/03/12 04:05:37;;;;;;;9.43;8.52;;;6.10;53.20;;;;;;5151972;27;20047;-73
2022/03/12 04:08:07;;;;;;;9.52;8.57;;;6.10;53.10;;;;;;5147967;27;20394;-73
2022/03/12 04:10:36;;;;;;;9.70;8.70;;;6.10;53.00;;;;;;5155986;27;20596;-73
2022/03/12 04:13:09;;;;;;;12.18;9.05;;;6.10;53.40;;;;;;5133500;27;20042;-73
2022/03/12 04:15:37;;;;;;;9.48;8.52;;;6.10;53.30;;;;;;5155612;27;20042;-73
2022/03/12 04:18:04;;;;;;;9.50;8.60;;;6.10;52.80;;;;;;5136976;27;20389;-73
2022/03/12 04:20:30;;;;;;;9.80;8.82;;;6.10;52.80;;;;;;5135006;27;20043;-73
2022/03/12 04:22:56;;;;;;;9.80;8.35;;;6.00;53.10;;;;;;5150724;27;20121;-73
2022/03/12 04:25:22;;;;;;;9.32;8.40;;;6.00;53.00;;;;;;5155061;27;20395;-73
2022/03/12 04:27:49;;;;;;;9.63;8.63;;;6.00;53.30;;;;;;5146140;27;20440;-73
2022/03/12 04:30:20;;;;;;;10.02;8.55;;;6.00;53.00;;;;;;5137342;27;20053;-73
2022/03/12 04:32:46;;;;;;;9.15;8.20;;;5.90;53.30;;;;;;5128158;27;20099;-72
2022/03/12 04:35:12;;;;;;;10.50;8.55;;;5.90;53.10;;;;;;5150862;27;20049;-73
2022/03/12 04:37:39;;;;;;;10.30;8.52;;;5.90;53.30;;;;;;5150917;27;20043;-73
2022/03/12 04:40:12;;;;;;;10.35;8.68;;;5.90;53.80;;;;;;5154101;27;20093;-73
2022/03/12 04:42:42;;;;;;;10.23;9.05;;;5.90;53.80;;;;;;5152498;27;20387;-73
2022/03/12 04:45:10;;;;;;;10.25;8.77;;;5.90;53.80;;;;;;5142508;27;20063;-73
2022/03/12 04:47:36;;;;;;;10.75;8.40;;;5.90;53.00;;;;;;5141057;27;20076;-72
2022/03/12 04:50:06;;;;;;;9.30;8.43;;;5.90;52.70;;;;;;5154375;27;20109;-74
2022/03/12 04:52:32;;;;;;;9.50;8.60;;;5.90;52.80;;;;;;5135693;27;20041;-72
2022/03/12 04:54:58;;;;;;;9.38;8.48;;;5.90;52.70;;;;;;5134415;27;20133;-73
2022/03/12 04:57:24;;;;;;;10.32;8.85;;;5.80;53.20;;;;;;5152742;27;20078;-73
2022/03/12 04:59:50;;;;;;;11.43;8.77;;;5.80;53.60;;;;;;5155128;27;20075;-73
2022/03/12 05:02:15;;;;;;;9.60;8.25;;;5.70;53.70;;;;;;5129446;27;20117;-73
2022/03/12 05:04:41;;;;;;;9.40;8.18;;;5.60;54.10;;;;;;5155088;27;20061;-73
2022/03/12 05:07:09;;;;;;;9.43;8.40;;;5.60;54.30;;;;;;5153600;27;20048;-73
2022/03/12 05:09:34;;;;;;;10.13;8.90;;;5.50;54.70;;;;;;5154878;27;20046;-73
2022/03/12 05:12:05;;;;;;;9.23;7.97;;;5.40;55.00;;;;;;5139684;27;20039;-74
2022/03/12 05:14:35;;;;;;;10.70;9.25;;;5.40;55.40;;;;;;5146376;27;20113;-73
2022/03/12 05:17:05;;;;;;;9.70;8.70;;;5.30;55.50;;;;;;5154058;27;20038;-73
2022/03/12 05:19:35;;;;;;;10.07;9.07;;;5.20;55.90;;;;;;5154899;27;20054;-73
2022/03/12 05:22:01;;;;;;;9.88;8.40;;;5.10;56.10;;;;;;5153957;27;20042;-73
2022/03/12 05:24:26;;;;;;;9.75;8.73;;;5.10;56.60;;;;;;5139354;27;20054;-73
2022/03/12 05:26:52;;;;;;;10.35;9.35;;;5.00;57.00;;;;;;5145958;27;20391;-73
2022/03/12 05:29:18;;;;;;;10.27;9.20;;;4.90;57.20;;;;;;5153954;27;20046;-73
2022/03/12 05:31:44;;;;;;;10.25;9.20;;;4.90;58.00;;;;;;5141941;27;20114;-73
2022/03/12 05:34:09;;;;;;;10.10;9.02;;;4.80;57.80;;;;;;5143314;27;20483;-73
2022/03/12 05:36:36;;;;;;;9.85;8.85;;;4.80;58.40;;;;;;5133711;27;20051;-73
2022/03/12 05:39:02;;;;;;;10.52;8.70;;;4.70;58.50;;;;;;5126119;27;20078;-73
2022/03/12 05:41:29;;;;;;;9.82;8.82;;;4.70;59.10;;;;;;5142187;27;20108;-73
2022/03/12 05:43:56;;;;;;;9.93;8.85;;;4.60;59.40;;;;;;5139238;27;20518;-73
2022/03/12 05:46:21;;;;;;;11.13;8.75;;;4.60;59.70;;;;;;5133504;27;20047;-73
2022/03/12 05:48:47;;;;;;;10.10;9.10;;;4.60;60.20;;;;;;5119457;27;20130;-73
2022/03/12 05:51:14;;;;;;;9.95;8.90;;;4.60;60.20;;;;;;5140719;27;20483;-73
2022/03/12 05:53:40;;;;;;;9.82;8.82;;;4.60;60.40;;;;;;5152075;27;20121;-73
2022/03/12 05:56:06;;;;;;;9.98;8.85;;;4.70;60.50;;;;;;5154008;27;20119;-73
2022/03/12 05:58:38;;;;;;;11.20;8.73;;;4.70;59.80;;;;;;5152561;27;20476;-73
2022/03/12 06:01:04;;;;;;;9.98;8.60;;;4.80;59.50;;;;;;5133635;28;20051;-73
2022/03/12 06:03:31;;;;;;;9.57;8.63;;;4.90;58.80;;;;;;5135555;27;20054;-73
2022/03/12 06:05:59;;;;;;;9.75;8.68;;;5.00;58.70;;;;;;5133296;28;20048;-73
2022/03/12 06:08:28;;;;;;;10.73;8.52;;;5.00;58.40;;;;;;5133916;27;20049;-74
2022/03/12 06:10:55;;;;;;;9.32;8.43;;;5.10;58.20;;;;;;5152697;27;20039;-73
2022/03/12 06:13:27;;;;;;;10.10;8.52;;;5.20;58.00;;;;;;5152428;27;20043;-73
2022/03/12 06:16:00;;;;;;;10.48;8.45;;;5.30;57.80;;;;;;5115301;28;20433;-73
2022/03/12 06:18:34;;;;;;;9.70;8.63;;;5.30;57.50;;;;;;5152224;27;20074;-73
2022/03/12 06:21:01;;;;;;;9.90;8.82;;;5.30;57.00;;;;;;5153959;27;20049;-73
2022/03/12 06:23:28;;;;;;;9.23;8.07;;;5.40;56.70;;;;;;5144535;27;20043;-73
2022/03/12 06:25:54;;;;;;;9.90;8.40;;;5.50;56.60;;;;;;5134329;27;20047;-73
2022/03/12 06:28:20;;;;;;;9.45;8.45;;;5.50;56.50;;;;;;5148345;27;20043;-73
2022/03/12 06:30:47;;;;;;;9.73;8.68;;;5.50;56.50;;;;;;5153601;27;20475;-73
2022/03/12 06:33:15;;;;;;;9.02;8.13;;;5.50;56.80;;;;;;5147054;27;20043;-74
2022/03/12 06:35:42;;;;;;;11.23;8.00;;;5.50;57.00;;;;;;5139196;27;20055;-73
2022/03/12 06:38:10;;;;;;;9.65;8.27;;;5.60;57.00;;;;;;5144209;27;20043;-73
2022/03/12 06:40:36;;;;;;;9.13;8.15;;;5.60;57.40;;;;;;5153100;27;20043;-73
2022/03/12 06:43:05;;;;;;;9.70;8.70;;;5.60;57.60;;;;;;5152741;27;20050;-73
2022/03/12 06:45:32;;;;;;;9.93;8.63;;;5.60;57.90;;;;;;5143758;27;20078;-73
2022/03/12 06:47:58;;;;;;;9.80;8.80;;;5.60;58.00;;;;;;5134124;27;20050;-73
2022/03/12 06:50:24;;;;;;;10.20;8.35;;;5.60;58.30;;;;;;5142702;27;20038;-73
2022/03/12 06:52:50;;;;;;;11.20;8.88;;;5.60;58.20;;;;;;5152868;27;20479;-73
2022/03/12 06:55:19;;;;;;;9.60;8.68;;;5.70;58.40;;;;;;5151396;27;20441;-74
2022/03/12 06:57:46;;;;;;;10.70;8.80;;;5.70;58.70;;;;;;5153358;27;20479;-73
2022/03/12 07:00:15;;;;;;;9.82;8.82;;;5.80;58.10;;;;;;5151620;27;20047;-73
2022/03/12 07:02:41;;;;;;;11.60;9.15;;;5.80;58.20;;;;;;5141551;27;20051;-73
2022/03/12 07:05:07;;;;;;;10.18;9.05;;;5.90;58.50;;;;;;5117378;27;20050;-74
2022/03/12 07:07:33;;;;;;;10.73;8.55;;;6.00;58.40;;;;;;5137295;27;20383;-73
2022/03/12 07:09:59;;;;;;;9.77;8.63;;;6.10;58.30;;;;;;5157372;27;20098;-73
2022/03/12 07:12:25;;;;;;;9.70;8.70;;;6.10;58.20;;;;;;5136786;27;20058;-73
2022/03/12 07:14:51;;;;;;;10.77;8.65;;;6.30;57.80;;;;;;5140211;27;20046;-74
2022/03/12 07:17:17;;;;;;;11.68;8.63;;;6.30;58.00;;;;;;5156205;27;20047;-74
2022/03/12 07:19:43;;;;;;;10.23;8.98;;;6.30;58.50;;;;;;5156451;27;20133;-74
2022/03/12 07:22:08;;;;;;;10.05;9.05;;;6.40;58.40;;;;;;5153530;27;20074;-73
2022/03/12 07:24:35;;;;;;;10.60;9.20;;;6.50;57.80;;;;;;5136126;27;20118;-73
2022/03/12 07:27:01;;;;;;;9.95;8.98;;;6.50;58.00;;;;;;5150278;27;20046;-73
2022/03/12 07:29:29;;;;;;;12.25;8.57;;;6.60;57.90;;;;;;5155714;27;20103;-73
2022/03/12 07:31:56;;;;;;;10.57;9.13;;;6.60;58.10;;;;;;5155882;27;20070;-73
2022/03/12 07:34:22;;;;;;;10.38;8.80;;;6.60;58.20;;;;;;5152708;27;20051;-74
2022/03/12 07:36:48;;;;;;;13.30;9.27;;;6.60;58.50;;;;;;5121680;27;20069;-73
2022/03/12 07:39:14;;;;;;;10.10;9.10;;;6.60;58.50;;;;;;5155024;27;20034;-73
2022/03/12 07:41:40;;;;;;;9.80;8.60;;;6.60;58.40;;;;;;5150775;27;20045;-73
2022/03/12 07:44:07;;;;;;;9.70;8.70;;;6.80;59.30;;;;;;5156427;27;20051;-74
2022/03/12 07:46:34;;;;;;;10.68;8.80;;;7.00;58.20;;;;;;5139788;27;20044;-79
2022/03/12 07:49:00;;;;;;;9.85;8.60;;;7.30;58.30;;;;;;5135507;27;20043;-73
2022/03/12 07:51:26;;;;;;;11.13;9.45;;;7.60;57.90;;;;;;5117117;27;20047;-74
2022/03/12 07:53:52;;;;;;;9.30;8.40;;;7.90;56.30;;;;;;5145403;27;20038;-74
2022/03/12 07:56:18;;;;;;;9.00;8.10;;;8.30;55.70;;;;;;5156260;27;20058;-74
2022/03/12 07:58:44;;;;;;;10.40;9.40;;;8.40;55.50;;;;;;5155379;27;20444;-74
2022/03/12 08:01:10;;;;;;;10.57;9.48;;;8.60;55.40;;;;;;5156116;27;20042;-74
2022/03/12 08:03:36;;;;;;;10.25;8.95;;;8.80;54.60;;;;;;5155670;27;20110;-74
2022/03/12 08:06:08;;;;;;;9.73;8.73;;;9.10;54.90;;;;;;5155922;27;20034;-74
2022/03/12 08:08:34;;;;;;;9.90;8.88;;;9.30;53.80;;;;;;5155602;27;20043;-74
2022/03/12 08:13:45;;;;;;;10.48;9.40;;;9.50;52.70;;;;;;5150447;27;20480;-73
2022/03/12 08:16:15;;;;;;;11.48;9.00;;;9.70;52.80;;;;;;5147926;27;20038;-73
2022/03/12 08:18:42;;;;;;;11.68;9.25;;;9.90;52.80;;;;;;5152850;27;20038;-73
2022/03/12 08:21:10;;;;;;;11.40;9.10;;;10.00;53.80;;;;;;5154788;27;20043;-73
2022/03/12 08:23:37;;;;;;;10.40;9.30;;;10.00;52.30;;;;;;5152961;27;20125;-73
2022/03/12 08:26:03;;;;;;;12.75;9.13;;;10.00;52.70;;;;;;5155696;27;20088;-73
2022/03/12 08:28:29;;;;;;;10.82;9.30;;;10.00;53.30;;;;;;5118883;27;20039;-74
2022/03/12 08:30:54;;;;;;;10.32;9.25;;;10.00;53.40;;;;;;5145262;27;20095;-74
2022/03/12 08:33:20;;;;;;;11.57;9.45;;;10.10;53.30;;;;;;5154452;27;20042;-77
2022/03/12 08:35:47;;;;;;;11.55;10.30;;;10.20;53.60;;;;;;5137080;27;20067;-76
2022/03/12 08:38:13;;;;;;;11.88;9.63;;;10.30;53.00;;;;;;5135837;27;20054;-76
2022/03/12 08:40:39;;;;;;;10.75;9.65;;;10.40;52.70;;;;;;5115087;27;20043;-76
2022/03/12 08:43:04;;;;;;;13.95;10.02;;;10.50;53.10;;;;;;5144827;27;20050;-79
2022/03/12 08:45:31;;;;;;;10.98;9.73;;;10.60;53.20;;;;;;5153771;27;20082;-77
2022/03/12 08:47:57;;;;;;;11.38;9.90;;;10.70;53.50;;;;;;5154099;27;20510;-77
2022/03/12 08:50:24;;;;;;;10.88;9.77;;;10.80;53.90;;;;;;5136805;27;20043;-79
2022/03/12 08:52:50;;;;;;;10.95;9.55;;;11.00;54.80;;;;;;5133772;27;20416;-78
2022/03/12 08:55:17;;;;;;;11.68;9.63;;;11.10;54.20;;;;;;5141575;27;20440;-78
2022/03/12 08:57:42;;;;;;;11.05;9.80;;;11.20;54.30;;;;;;5154212;27;20403;-77
2022/03/12 09:00:12;;;;;;;12.23;9.40;;;11.20;53.80;;;;;;5145542;27;20039;-79
2022/03/12 09:02:38;;;;;;;10.88;9.30;;;11.30;54.00;;;;;;5127985;27;20073;-78
2022/03/12 09:05:06;;;;;;;11.75;9.52;;;11.40;53.70;;;;;;5148852;27;20171;-78
2022/03/12 09:07:33;;;;;;;11.13;9.93;;;11.50;54.40;;;;;;5144884;27;20047;-77
2022/03/12 09:09:59;;;;;;;11.80;10.52;;;11.60;54.00;;;;;;5153390;27;20058;-77
2022/03/12 09:12:25;;;;;;;13.18;9.90;;;11.70;54.60;;;;;;5151901;27;20031;-77
2022/03/12 09:14:52;;;;;;;10.98;9.88;;;11.90;54.30;;;;;;5153399;27;20359;-77
2022/03/12 09:17:18;;;;;;;11.40;10.15;;;12.00;53.60;;;;;;5150194;27;20585;-77
2022/03/12 09:19:43;;;;;;;12.52;10.70;;;12.10;54.30;;;;;;5133408;27;20083;-77
2022/03/12 09:22:09;;;;;;;12.50;9.88;;;12.20;55.00;;;;;;5134060;27;20054;-79
2022/03/12 09:24:38;;;;;;;11.38;10.18;;;12.30;55.40;;;;;;5133413;27;20103;-78
2022/03/12 09:27:05;;;;;;;11.18;10.07;;;12.40;55.70;;;;;;5134858;27;20104;-79
